sensor_id;sensor_type;location;lat;lon;timestamp;P1;durP1;ratioP1;P2;durP2;ratioP2
4248;SDS011;8404;48.752;12.922;2022-09-09T00:01:15;3.90;;;3.08;;
4248;SDS011;8404;48.752;12.922;2022-09-09T00:03:54;6.53;;;3.83;;
4248;SDS011;8404;48.752;12.922;2022-09-09T00:06:28;6.65;;;4.40;;
4248;SDS011;8404;48.752;12.922;2022-09-09T00:09:00;4.43;;;3.47;;
4248;SDS011;8404;48.752;12.922;2022-09-09T00:11:34;5.43;;;4.28;;
4248;SDS011;8404;48.752;12.922;2022-09-09T00:14:11;5.15;;;4.00;;
4248;SDS011;8404;48.752;12.922;2022-09-09T00:16:47;5.63;;;4.03;;
4248;SDS011;8404;48.752;12.922;2022-09-09T00:19:20;5.45;;;3.55;;
4248;SDS011;8404;48.752;12.922;2022-09-09T00:21:53;4.50;;;3.42;;
4248;SDS011;8404;48.752;12.922;2022-09-09T00:24:32;4.70;;;4.20;;
4248;SDS011;8404;48.752;12.922;2022-09-09T00:27:08;4.32;;;3.92;;
4248;SDS011;8404;48.752;12.922;2022-09-09T00:29:43;4.40;;;3.70;;
4248;SDS011;8404;48.752;12.922;2022-09-09T00:32:16;5.15;;;3.63;;
4248;SDS011;8404;48.752;12.922;2022-09-09T00:34:47;6.70;;;3.40;;
4248;SDS011;8404;48.752;12.922;2022-09-09T00:37:18;5.03;;;3.45;;
4248;SDS011;8404;48.752;12.922;2022-09-09T00:39:48;6.13;;;3.97;;
4248;SDS011;8404;48.752;12.922;2022-09-09T00:42:19;4.65;;;3.67;;
4248;SDS011;8404;48.752;12.922;2022-09-09T00:44:53;5.45;;;3.15;;
4248;SDS011;8404;48.752;12.922;2022-09-09T00:47:35;6.00;;;3.43;;
4248;SDS011;8404;48.752;12.922;2022-09-09T00:50:12;5.60;;;3.88;;
4248;SDS011;8404;48.752;12.922;2022-09-09T00:52:58;5.10;;;3.72;;
4248;SDS011;8404;48.752;12.922;2022-09-09T00:55:39;6.05;;;3.60;;
4248;SDS011;8404;48.752;12.922;2022-09-09T00:58:10;4.18;;;3.53;;
4248;SDS011;8404;48.752;12.922;2022-09-09T01:00:41;5.25;;;3.97;;
4248;SDS011;8404;48.752;12.922;2022-09-09T01:03:17;7.32;;;4.45;;
4248;SDS011;8404;48.752;12.922;2022-09-09T01:06:00;3.80;;;3.40;;
4248;SDS011;8404;48.752;12.922;2022-09-09T01:08:52;4.30;;;3.17;;
4248;SDS011;8404;48.752;12.922;2022-09-09T01:11:35;4.28;;;3.47;;
4248;SDS011;8404;48.752;12.922;2022-09-09T01:14:13;5.57;;;3.45;;
4248;SDS011;8404;48.752;12.922;2022-09-09T01:16:47;4.97;;;3.75;;
4248;SDS011;8404;48.752;12.922;2022-09-09T01:19:20;3.97;;;3.58;;
4248;SDS011;8404;48.752;12.922;2022-09-09T01:22:01;4.47;;;4.07;;
4248;SDS011;8404;48.752;12.922;2022-09-09T01:24:40;4.32;;;3.63;;
4248;SDS011;8404;48.752;12.922;2022-09-09T01:27:23;7.38;;;3.92;;
4248;SDS011;8404;48.752;12.922;2022-09-09T01:29:52;4.40;;;3.72;;
4248;SDS011;8404;48.752;12.922;2022-09-09T01:32:38;4.70;;;3.78;;
4248;SDS011;8404;48.752;12.922;2022-09-09T01:35:11;4.68;;;3.70;;
4248;SDS011;8404;48.752;12.922;2022-09-09T01:37:46;5.82;;;3.85;;
4248;SDS011;8404;48.752;12.922;2022-09-09T01:40:15;6.63;;;3.13;;
4248;SDS011;8404;48.752;12.922;2022-09-09T01:42:46;5.18;;;3.80;;
4248;SDS011;8404;48.752;12.922;2022-09-09T01:45:15;4.38;;;3.13;;
4248;SDS011;8404;48.752;12.922;2022-09-09T01:47:43;5.65;;;3.42;;
4248;SDS011;8404;48.752;12.922;2022-09-09T01:50:19;4.88;;;3.55;;
4248;SDS011;8404;48.752;12.922;2022-09-09T01:52:48;4.50;;;3.50;;
4248;SDS011;8404;48.752;12.922;2022-09-09T01:55:28;5.35;;;3.75;;
4248;SDS011;8404;48.752;12.922;2022-09-09T01:58:07;4.03;;;3.53;;
4248;SDS011;8404;48.752;12.922;2022-09-09T02:00:53;4.82;;;4.18;;
4248;SDS011;8404;48.752;12.922;2022-09-09T02:03:30;5.00;;;4.50;;
4248;SDS011;8404;48.752;12.922;2022-09-09T02:06:14;6.85;;;3.97;;
4248;SDS011;8404;48.752;12.922;2022-09-09T02:08:57;6.57;;;4.20;;
4248;SDS011;8404;48.752;12.922;2022-09-09T02:11:29;4.38;;;3.97;;
4248;SDS011;8404;48.752;12.922;2022-09-09T02:14:08;5.57;;;3.90;;
4248;SDS011;8404;48.752;12.922;2022-09-09T02:16:44;4.32;;;3.92;;
4248;SDS011;8404;48.752;12.922;2022-09-09T02:19:16;8.27;;;4.43;;
4248;SDS011;8404;48.752;12.922;2022-09-09T02:21:59;6.18;;;3.35;;
4248;SDS011;8404;48.752;12.922;2022-09-09T02:24:28;5.30;;;3.80;;
4248;SDS011;8404;48.752;12.922;2022-09-09T02:27:10;6.75;;;3.55;;
4248;SDS011;8404;48.752;12.922;2022-09-09T02:29:41;4.65;;;4.20;;
4248;SDS011;8404;48.752;12.922;2022-09-09T02:32:12;4.88;;;4.22;;
4248;SDS011;8404;48.752;12.922;2022-09-09T02:34:43;4.10;;;3.33;;
4248;SDS011;8404;48.752;12.922;2022-09-09T02:37:15;7.30;;;4.57;;
4248;SDS011;8404;48.752;12.922;2022-09-09T02:39:50;4.40;;;4.00;;
4248;SDS011;8404;48.752;12.922;2022-09-09T02:42:20;7.85;;;4.40;;
4248;SDS011;8404;48.752;12.922;2022-09-09T02:44:53;5.72;;;4.45;;
4248;SDS011;8404;48.752;12.922;2022-09-09T02:47:25;6.80;;;4.80;;
4248;SDS011;8404;48.752;12.922;2022-09-09T02:50:08;7.50;;;5.30;;
4248;SDS011;8404;48.752;12.922;2022-09-09T02:52:44;4.90;;;4.38;;
4248;SDS011;8404;48.752;12.922;2022-09-09T02:55:22;5.15;;;4.55;;
4248;SDS011;8404;48.752;12.922;2022-09-09T02:57:56;5.80;;;4.55;;
4248;SDS011;8404;48.752;12.922;2022-09-09T03:00:29;8.13;;;5.75;;
4248;SDS011;8404;48.752;12.922;2022-09-09T03:03:00;6.15;;;4.32;;
4248;SDS011;8404;48.752;12.922;2022-09-09T03:05:28;6.50;;;4.70;;
4248;SDS011;8404;48.752;12.922;2022-09-09T03:07:56;6.20;;;5.60;;
4248;SDS011;8404;48.752;12.922;2022-09-09T03:10:25;7.68;;;5.13;;
4248;SDS011;8404;48.752;12.922;2022-09-09T03:12:53;7.55;;;5.03;;
4248;SDS011;8404;48.752;12.922;2022-09-09T03:15:21;6.97;;;4.80;;
4248;SDS011;8404;48.752;12.922;2022-09-09T03:17:51;6.93;;;5.70;;
4248;SDS011;8404;48.752;12.922;2022-09-09T03:20:21;7.55;;;5.90;;
4248;SDS011;8404;48.752;12.922;2022-09-09T03:22:49;8.20;;;5.70;;
4248;SDS011;8404;48.752;12.922;2022-09-09T03:25:18;7.35;;;5.07;;
4248;SDS011;8404;48.752;12.922;2022-09-09T03:27:46;7.55;;;6.60;;
4248;SDS011;8404;48.752;12.922;2022-09-09T03:30:14;6.85;;;5.70;;
4248;SDS011;8404;48.752;12.922;2022-09-09T03:32:43;6.10;;;5.28;;
4248;SDS011;8404;48.752;12.922;2022-09-09T03:35:16;7.05;;;5.75;;
4248;SDS011;8404;48.752;12.922;2022-09-09T03:37:44;7.18;;;5.53;;
4248;SDS011;8404;48.752;12.922;2022-09-09T03:40:13;6.95;;;6.25;;
4248;SDS011;8404;48.752;12.922;2022-09-09T03:42:44;7.22;;;5.88;;
4248;SDS011;8404;48.752;12.922;2022-09-09T03:45:12;7.88;;;6.03;;
4248;SDS011;8404;48.752;12.922;2022-09-09T03:47:40;6.45;;;5.15;;
4248;SDS011;8404;48.752;12.922;2022-09-09T03:50:09;6.93;;;5.80;;
4248;SDS011;8404;48.752;12.922;2022-09-09T03:52:44;8.10;;;5.75;;
4248;SDS011;8404;48.752;12.922;2022-09-09T03:55:18;6.35;;;5.57;;
4248;SDS011;8404;48.752;12.922;2022-09-09T03:57:47;6.22;;;5.53;;
4248;SDS011;8404;48.752;12.922;2022-09-09T04:00:17;7.55;;;5.55;;
4248;SDS011;8404;48.752;12.922;2022-09-09T04:02:50;9.70;;;5.95;;
4248;SDS011;8404;48.752;12.922;2022-09-09T04:05:23;7.90;;;5.90;;
4248;SDS011;8404;48.752;12.922;2022-09-09T04:07:52;6.75;;;5.28;;
4248;SDS011;8404;48.752;12.922;2022-09-09T04:10:20;7.22;;;5.40;;
4248;SDS011;8404;48.752;12.922;2022-09-09T04:12:49;6.18;;;4.60;;
4248;SDS011;8404;48.752;12.922;2022-09-09T04:15:17;6.72;;;4.63;;
4248;SDS011;8404;48.752;12.922;2022-09-09T04:17:45;6.80;;;4.88;;
4248;SDS011;8404;48.752;12.922;2022-09-09T04:20:13;6.18;;;5.22;;
4248;SDS011;8404;48.752;12.922;2022-09-09T04:22:42;6.80;;;5.38;;
4248;SDS011;8404;48.752;12.922;2022-09-09T04:25:11;5.60;;;4.75;;
4248;SDS011;8404;48.752;12.922;2022-09-09T04:27:40;6.57;;;4.95;;
4248;SDS011;8404;48.752;12.922;2022-09-09T04:30:09;6.68;;;5.97;;
4248;SDS011;8404;48.752;12.922;2022-09-09T04:32:40;6.75;;;6.05;;
4248;SDS011;8404;48.752;12.922;2022-09-09T04:35:08;8.05;;;5.43;;
4248;SDS011;8404;48.752;12.922;2022-09-09T04:37:36;7.20;;;5.22;;
4248;SDS011;8404;48.752;12.922;2022-09-09T04:40:04;7.82;;;5.82;;
4248;SDS011;8404;48.752;12.922;2022-09-09T04:42:37;8.30;;;5.28;;
4248;SDS011;8404;48.752;12.922;2022-09-09T04:45:12;6.20;;;5.43;;
4248;SDS011;8404;48.752;12.922;2022-09-09T04:47:41;7.43;;;5.63;;
4248;SDS011;8404;48.752;12.922;2022-09-09T04:50:09;5.40;;;4.90;;
4248;SDS011;8404;48.752;12.922;2022-09-09T04:52:38;7.68;;;5.75;;
4248;SDS011;8404;48.752;12.922;2022-09-09T04:55:07;9.73;;;5.45;;
4248;SDS011;8404;48.752;12.922;2022-09-09T04:57:38;6.32;;;5.03;;
4248;SDS011;8404;48.752;12.922;2022-09-09T05:00:06;6.68;;;5.18;;
4248;SDS011;8404;48.752;12.922;2022-09-09T05:02:38;8.45;;;5.95;;
4248;SDS011;8404;48.752;12.922;2022-09-09T05:05:09;7.05;;;5.70;;
4248;SDS011;8404;48.752;12.922;2022-09-09T05:07:39;6.38;;;5.20;;
4248;SDS011;8404;48.752;12.922;2022-09-09T05:10:08;6.18;;;5.57;;
4248;SDS011;8404;48.752;12.922;2022-09-09T05:12:38;5.20;;;4.20;;
4248;SDS011;8404;48.752;12.922;2022-09-09T05:15:06;7.00;;;5.53;;
4248;SDS011;8404;48.752;12.922;2022-09-09T05:17:36;7.22;;;6.13;;
4248;SDS011;8404;48.752;12.922;2022-09-09T05:20:04;7.82;;;5.28;;
4248;SDS011;8404;48.752;12.922;2022-09-09T05:22:37;6.88;;;6.03;;
4248;SDS011;8404;48.752;12.922;2022-09-09T05:25:05;8.48;;;5.85;;
4248;SDS011;8404;48.752;12.922;2022-09-09T05:27:34;7.50;;;5.57;;
4248;SDS011;8404;48.752;12.922;2022-09-09T05:30:05;6.70;;;5.40;;
4248;SDS011;8404;48.752;12.922;2022-09-09T05:32:34;6.32;;;4.93;;
4248;SDS011;8404;48.752;12.922;2022-09-09T05:35:03;7.28;;;5.47;;
4248;SDS011;8404;48.752;12.922;2022-09-09T05:37:31;8.27;;;5.50;;
4248;SDS011;8404;48.752;12.922;2022-09-09T05:39:59;7.85;;;5.57;;
4248;SDS011;8404;48.752;12.922;2022-09-09T05:42:29;6.97;;;6.05;;
4248;SDS011;8404;48.752;12.922;2022-09-09T05:44:58;7.00;;;6.30;;
4248;SDS011;8404;48.752;12.922;2022-09-09T05:47:28;8.30;;;6.53;;
4248;SDS011;8404;48.752;12.922;2022-09-09T05:49:56;6.90;;;6.20;;
4248;SDS011;8404;48.752;12.922;2022-09-09T05:52:24;8.63;;;6.82;;
4248;SDS011;8404;48.752;12.922;2022-09-09T05:54:54;8.88;;;6.82;;
4248;SDS011;8404;48.752;12.922;2022-09-09T05:57:23;7.43;;;5.80;;
4248;SDS011;8404;48.752;12.922;2022-09-09T05:59:51;6.15;;;5.53;;
4248;SDS011;8404;48.752;12.922;2022-09-09T06:02:20;5.80;;;5.00;;
4248;SDS011;8404;48.752;12.922;2022-09-09T06:04:50;5.78;;;5.00;;
4248;SDS011;8404;48.752;12.922;2022-09-09T06:07:18;7.75;;;5.63;;
4248;SDS011;8404;48.752;12.922;2022-09-09T06:09:46;6.28;;;5.28;;
4248;SDS011;8404;48.752;12.922;2022-09-09T06:12:14;6.63;;;5.60;;
4248;SDS011;8404;48.752;12.922;2022-09-09T06:14:42;5.68;;;5.05;;
4248;SDS011;8404;48.752;12.922;2022-09-09T06:17:13;6.93;;;5.57;;
4248;SDS011;8404;48.752;12.922;2022-09-09T06:19:41;5.85;;;5.00;;
4248;SDS011;8404;48.752;12.922;2022-09-09T06:22:10;6.13;;;5.30;;
4248;SDS011;8404;48.752;12.922;2022-09-09T06:24:38;6.30;;;4.63;;
4248;SDS011;8404;48.752;12.922;2022-09-09T06:27:07;6.57;;;5.35;;
4248;SDS011;8404;48.752;12.922;2022-09-09T06:29:35;6.22;;;5.25;;
4248;SDS011;8404;48.752;12.922;2022-09-09T06:32:04;6.75;;;4.38;;
4248;SDS011;8404;48.752;12.922;2022-09-09T06:34:34;5.07;;;4.55;;
4248;SDS011;8404;48.752;12.922;2022-09-09T06:37:03;5.38;;;4.35;;
4248;SDS011;8404;48.752;12.922;2022-09-09T06:39:41;8.30;;;4.97;;
4248;SDS011;8404;48.752;12.922;2022-09-09T06:42:10;5.78;;;5.05;;
4248;SDS011;8404;48.752;12.922;2022-09-09T06:44:54;6.35;;;5.13;;
4248;SDS011;8404;48.752;12.922;2022-09-09T06:47:42;7.10;;;5.60;;
4248;SDS011;8404;48.752;12.922;2022-09-09T06:50:10;7.72;;;5.57;;
4248;SDS011;8404;48.752;12.922;2022-09-09T06:52:38;6.43;;;4.78;;
4248;SDS011;8404;48.752;12.922;2022-09-09T06:55:09;5.43;;;4.38;;
4248;SDS011;8404;48.752;12.922;2022-09-09T06:57:40;4.97;;;4.47;;
4248;SDS011;8404;48.752;12.922;2022-09-09T07:00:13;6.70;;;5.07;;
4248;SDS011;8404;48.752;12.922;2022-09-09T07:02:41;5.15;;;4.65;;
4248;SDS011;8404;48.752;12.922;2022-09-09T07:05:11;6.85;;;4.88;;
4248;SDS011;8404;48.752;12.922;2022-09-09T07:07:41;6.22;;;4.95;;
4248;SDS011;8404;48.752;12.922;2022-09-09T07:10:12;6.03;;;5.18;;
4248;SDS011;8404;48.752;12.922;2022-09-09T07:12:40;7.28;;;5.50;;
4248;SDS011;8404;48.752;12.922;2022-09-09T07:15:10;5.63;;;4.82;;
4248;SDS011;8404;48.752;12.922;2022-09-09T07:17:42;5.20;;;3.75;;
4248;SDS011;8404;48.752;12.922;2022-09-09T07:20:11;5.65;;;4.15;;
4248;SDS011;8404;48.752;12.922;2022-09-09T07:22:40;8.63;;;4.18;;
4248;SDS011;8404;48.752;12.922;2022-09-09T07:25:09;4.70;;;3.88;;
4248;SDS011;8404;48.752;12.922;2022-09-09T07:27:39;5.03;;;3.90;;
4248;SDS011;8404;48.752;12.922;2022-09-09T07:30:08;6.13;;;4.43;;
4248;SDS011;8404;48.752;12.922;2022-09-09T07:32:43;5.20;;;3.72;;
4248;SDS011;8404;48.752;12.922;2022-09-09T07:35:11;4.05;;;3.00;;
4248;SDS011;8404;48.752;12.922;2022-09-09T07:37:40;6.00;;;3.72;;
4248;SDS011;8404;48.752;12.922;2022-09-09T07:40:13;4.22;;;3.25;;
4248;SDS011;8404;48.752;12.922;2022-09-09T07:42:42;5.13;;;3.20;;
4248;SDS011;8404;48.752;12.922;2022-09-09T07:45:11;3.60;;;2.38;;
4248;SDS011;8404;48.752;12.922;2022-09-09T07:47:40;3.70;;;2.92;;
4248;SDS011;8404;48.752;12.922;2022-09-09T07:50:08;3.63;;;2.60;;
4248;SDS011;8404;48.752;12.922;2022-09-09T07:52:38;3.55;;;2.45;;
4248;SDS011;8404;48.752;12.922;2022-09-09T07:55:06;3.08;;;2.40;;
4248;SDS011;8404;48.752;12.922;2022-09-09T07:57:36;3.47;;;2.83;;
4248;SDS011;8404;48.752;12.922;2022-09-09T08:00:06;3.08;;;2.40;;
4248;SDS011;8404;48.752;12.922;2022-09-09T08:02:41;3.03;;;2.50;;
4248;SDS011;8404;48.752;12.922;2022-09-09T08:05:10;3.58;;;2.10;;
4248;SDS011;8404;48.752;12.922;2022-09-09T08:07:39;4.00;;;2.72;;
4248;SDS011;8404;48.752;12.922;2022-09-09T08:10:08;3.42;;;2.33;;
4248;SDS011;8404;48.752;12.922;2022-09-09T08:12:40;2.53;;;2.20;;
4248;SDS011;8404;48.752;12.922;2022-09-09T08:15:29;4.10;;;2.67;;
4248;SDS011;8404;48.752;12.922;2022-09-09T08:17:58;4.10;;;2.40;;
4248;SDS011;8404;48.752;12.922;2022-09-09T08:20:26;3.20;;;2.08;;
4248;SDS011;8404;48.752;12.922;2022-09-09T08:22:56;4.00;;;1.90;;
4248;SDS011;8404;48.752;12.922;2022-09-09T08:25:24;3.33;;;2.05;;
4248;SDS011;8404;48.752;12.922;2022-09-09T08:27:52;2.40;;;1.92;;
4248;SDS011;8404;48.752;12.922;2022-09-09T08:30:21;3.63;;;2.17;;
4248;SDS011;8404;48.752;12.922;2022-09-09T08:32:50;2.53;;;2.15;;
4248;SDS011;8404;48.752;12.922;2022-09-09T08:35:20;2.33;;;1.75;;
4248;SDS011;8404;48.752;12.922;2022-09-09T08:37:52;3.38;;;2.08;;
4248;SDS011;8404;48.752;12.922;2022-09-09T08:40:22;5.00;;;2.15;;
4248;SDS011;8404;48.752;12.922;2022-09-09T08:42:57;2.70;;;1.60;;
4248;SDS011;8404;48.752;12.922;2022-09-09T08:45:29;2.40;;;1.80;;
4248;SDS011;8404;48.752;12.922;2022-09-09T08:51:00;3.57;;;2.27;;
4248;SDS011;8404;48.752;12.922;2022-09-09T08:53:35;3.58;;;1.73;;
4248;SDS011;8404;48.752;12.922;2022-09-09T08:56:09;2.75;;;1.58;;
4248;SDS011;8404;48.752;12.922;2022-09-09T08:58:50;3.38;;;1.90;;
4248;SDS011;8404;48.752;12.922;2022-09-09T09:01:38;4.93;;;2.43;;
4248;SDS011;8404;48.752;12.922;2022-09-09T09:07:23;3.58;;;2.20;;
4248;SDS011;8404;48.752;12.922;2022-09-09T09:10:05;4.22;;;2.58;;
4248;SDS011;8404;48.752;12.922;2022-09-09T09:13:02;3.83;;;3.00;;
4248;SDS011;8404;48.752;12.922;2022-09-09T09:15:33;3.92;;;2.08;;
4248;SDS011;8404;48.752;12.922;2022-09-09T09:18:07;3.17;;;1.90;;
4248;SDS011;8404;48.752;12.922;2022-09-09T09:20:42;4.50;;;2.90;;
4248;SDS011;8404;48.752;12.922;2022-09-09T09:23:20;3.38;;;2.25;;
4248;SDS011;8404;48.752;12.922;2022-09-09T09:25:55;3.17;;;2.35;;
4248;SDS011;8404;48.752;12.922;2022-09-09T09:28:29;3.47;;;2.28;;
4248;SDS011;8404;48.752;12.922;2022-09-09T09:31:07;3.78;;;2.65;;
4248;SDS011;8404;48.752;12.922;2022-09-09T09:33:43;3.47;;;2.58;;
4248;SDS011;8404;48.752;12.922;2022-09-09T09:36:19;3.85;;;2.83;;
4248;SDS011;8404;48.752;12.922;2022-09-09T09:38:51;4.43;;;3.42;;
4248;SDS011;8404;48.752;12.922;2022-09-09T09:42:30;4.80;;;3.53;;
4248;SDS011;8404;48.752;12.922;2022-09-09T09:45:06;3.40;;;2.90;;
4248;SDS011;8404;48.752;12.922;2022-09-09T09:47:36;6.18;;;3.88;;
4248;SDS011;8404;48.752;12.922;2022-09-09T09:50:17;4.47;;;3.90;;
4248;SDS011;8404;48.752;12.922;2022-09-09T09:52:55;4.03;;;3.13;;
4248;SDS011;8404;48.752;12.922;2022-09-09T09:55:26;5.15;;;3.67;;
4248;SDS011;8404;48.752;12.922;2022-09-09T09:58:01;4.05;;;3.13;;
4248;SDS011;8404;48.752;12.922;2022-09-09T10:00:31;6.38;;;3.50;;
4248;SDS011;8404;48.752;12.922;2022-09-09T10:03:12;2.95;;;2.50;;
4248;SDS011;8404;48.752;12.922;2022-09-09T10:05:50;4.45;;;2.92;;
4248;SDS011;8404;48.752;12.922;2022-09-09T10:08:19;4.45;;;2.47;;
4248;SDS011;8404;48.752;12.922;2022-09-09T10:10:51;4.47;;;3.00;;
4248;SDS011;8404;48.752;12.922;2022-09-09T10:13:30;4.88;;;2.42;;
4248;SDS011;8404;48.752;12.922;2022-09-09T10:16:09;6.60;;;2.38;;
4248;SDS011;8404;48.752;12.922;2022-09-09T10:18:50;3.92;;;2.35;;
4248;SDS011;8404;48.752;12.922;2022-09-09T10:24:39;2.67;;;1.88;;
4248;SDS011;8404;48.752;12.922;2022-09-09T10:27:38;3.83;;;2.33;;
4248;SDS011;8404;48.752;12.922;2022-09-09T10:30:23;3.70;;;2.75;;
4248;SDS011;8404;48.752;12.922;2022-09-09T10:33:01;4.97;;;3.20;;
4248;SDS011;8404;48.752;12.922;2022-09-09T10:35:37;4.55;;;2.72;;
4248;SDS011;8404;48.752;12.922;2022-09-09T10:38:15;3.20;;;2.13;;
4248;SDS011;8404;48.752;12.922;2022-09-09T10:41:04;3.55;;;2.50;;
4248;SDS011;8404;48.752;12.922;2022-09-09T10:43:54;2.60;;;1.83;;
4248;SDS011;8404;48.752;12.922;2022-09-09T10:46:48;4.28;;;2.25;;
4248;SDS011;8404;48.752;12.922;2022-09-09T10:49:32;4.82;;;2.85;;
4248;SDS011;8404;48.752;12.922;2022-09-09T10:52:18;2.88;;;2.33;;
4248;SDS011;8404;48.752;12.922;2022-09-09T10:54:53;3.55;;;2.58;;
4248;SDS011;8404;48.752;12.922;2022-09-09T10:57:28;3.93;;;2.90;;
4248;SDS011;8404;48.752;12.922;2022-09-09T11:00:02;4.30;;;3.25;;
4248;SDS011;8404;48.752;12.922;2022-09-09T11:02:34;3.22;;;2.85;;
4248;SDS011;8404;48.752;12.922;2022-09-09T11:05:08;3.60;;;2.55;;
4248;SDS011;8404;48.752;12.922;2022-09-09T11:07:43;3.75;;;2.65;;
4248;SDS011;8404;48.752;12.922;2022-09-09T11:10:17;3.55;;;2.60;;
4248;SDS011;8404;48.752;12.922;2022-09-09T11:12:53;5.30;;;3.00;;
4248;SDS011;8404;48.752;12.922;2022-09-09T11:15:28;4.75;;;3.53;;
4248;SDS011;8404;48.752;12.922;2022-09-09T11:18:03;4.45;;;3.38;;
4248;SDS011;8404;48.752;12.922;2022-09-09T11:20:33;3.40;;;2.97;;
4248;SDS011;8404;48.752;12.922;2022-09-09T11:23:03;3.80;;;3.50;;
4248;SDS011;8404;48.752;12.922;2022-09-09T11:25:38;4.40;;;2.83;;
4248;SDS011;8404;48.752;12.922;2022-09-09T11:28:15;3.45;;;3.08;;
4248;SDS011;8404;48.752;12.922;2022-09-09T11:31:03;5.22;;;3.30;;
4248;SDS011;8404;48.752;12.922;2022-09-09T11:33:50;3.40;;;3.08;;
4248;SDS011;8404;48.752;12.922;2022-09-09T11:36:38;3.63;;;2.72;;
4248;SDS011;8404;48.752;12.922;2022-09-09T11:39:35;3.60;;;3.00;;
4248;SDS011;8404;48.752;12.922;2022-09-09T11:42:27;4.00;;;3.42;;
4248;SDS011;8404;48.752;12.922;2022-09-09T11:44:56;3.20;;;2.90;;
4248;SDS011;8404;48.752;12.922;2022-09-09T11:47:35;4.63;;;3.45;;
4248;SDS011;8404;48.752;12.922;2022-09-09T11:50:08;3.47;;;3.15;;
4248;SDS011;8404;48.752;12.922;2022-09-09T11:52:39;3.90;;;3.08;;
4248;SDS011;8404;48.752;12.922;2022-09-09T11:55:23;5.25;;;2.97;;
4248;SDS011;8404;48.752;12.922;2022-09-09T11:57:57;3.63;;;2.50;;
4248;SDS011;8404;48.752;12.922;2022-09-09T12:00:35;4.05;;;2.75;;
4248;SDS011;8404;48.752;12.922;2022-09-09T12:03:08;5.07;;;3.38;;
4248;SDS011;8404;48.752;12.922;2022-09-09T12:06:08;5.80;;;3.28;;
4248;SDS011;8404;48.752;12.922;2022-09-09T12:08:41;5.30;;;2.88;;
4248;SDS011;8404;48.752;12.922;2022-09-09T12:11:11;4.30;;;3.28;;
4248;SDS011;8404;48.752;12.922;2022-09-09T12:13:52;4.97;;;3.15;;
4248;SDS011;8404;48.752;12.922;2022-09-09T12:16:29;2.83;;;2.42;;
4248;SDS011;8404;48.752;12.922;2022-09-09T12:19:06;5.72;;;3.15;;
4248;SDS011;8404;48.752;12.922;2022-09-09T12:21:44;4.55;;;3.55;;
4248;SDS011;8404;48.752;12.922;2022-09-09T12:24:20;4.57;;;3.70;;
4248;SDS011;8404;48.752;12.922;2022-09-09T12:29:27;4.45;;;3.47;;
4248;SDS011;8404;48.752;12.922;2022-09-09T12:32:04;4.68;;;3.47;;
4248;SDS011;8404;48.752;12.922;2022-09-09T12:34:40;8.73;;;4.15;;
4248;SDS011;8404;48.752;12.922;2022-09-09T12:37:14;4.55;;;3.00;;
4248;SDS011;8404;48.752;12.922;2022-09-09T12:39:49;4.20;;;3.30;;
4248;SDS011;8404;48.752;12.922;2022-09-09T12:42:22;6.10;;;3.58;;
4248;SDS011;8404;48.752;12.922;2022-09-09T12:44:51;4.22;;;3.20;;
4248;SDS011;8404;48.752;12.922;2022-09-09T12:47:21;4.07;;;3.28;;
4248;SDS011;8404;48.752;12.922;2022-09-09T12:49:56;4.30;;;2.90;;
4248;SDS011;8404;48.752;12.922;2022-09-09T12:52:27;4.80;;;3.50;;
4248;SDS011;8404;48.752;12.922;2022-09-09T12:54:58;5.72;;;3.90;;
4248;SDS011;8404;48.752;12.922;2022-09-09T12:57:31;5.13;;;3.13;;
4248;SDS011;8404;48.752;12.922;2022-09-09T13:02:46;4.68;;;3.70;;
4248;SDS011;8404;48.752;12.922;2022-09-09T13:05:17;4.68;;;3.42;;
4248;SDS011;8404;48.752;12.922;2022-09-09T13:07:47;3.72;;;2.95;;
4248;SDS011;8404;48.752;12.922;2022-09-09T13:10:20;4.35;;;2.90;;
4248;SDS011;8404;48.752;12.922;2022-09-09T13:13:12;4.32;;;2.97;;
4248;SDS011;8404;48.752;12.922;2022-09-09T13:15:48;4.32;;;3.28;;
4248;SDS011;8404;48.752;12.922;2022-09-09T13:18:21;6.10;;;3.10;;
4248;SDS011;8404;48.752;12.922;2022-09-09T13:20:50;3.67;;;2.85;;
4248;SDS011;8404;48.752;12.922;2022-09-09T13:23:19;4.32;;;3.22;;
4248;SDS011;8404;48.752;12.922;2022-09-09T13:25:52;4.00;;;3.22;;
4248;SDS011;8404;48.752;12.922;2022-09-09T13:28:22;5.55;;;3.10;;
4248;SDS011;8404;48.752;12.922;2022-09-09T13:30:58;3.55;;;2.25;;
4248;SDS011;8404;48.752;12.922;2022-09-09T13:33:31;4.93;;;3.00;;
4248;SDS011;8404;48.752;12.922;2022-09-09T13:36:01;3.30;;;1.92;;
4248;SDS011;8404;48.752;12.922;2022-09-09T13:38:32;3.13;;;1.80;;
4248;SDS011;8404;48.752;12.922;2022-09-09T13:41:04;3.45;;;2.20;;
4248;SDS011;8404;48.752;12.922;2022-09-09T13:43:35;3.85;;;1.60;;
4248;SDS011;8404;48.752;12.922;2022-09-09T13:46:06;2.10;;;1.42;;
4248;SDS011;8404;48.752;12.922;2022-09-09T13:48:55;2.67;;;1.00;;
4248;SDS011;8404;48.752;12.922;2022-09-09T13:51:28;2.30;;;1.20;;
4248;SDS011;8404;48.752;12.922;2022-09-09T13:54:00;1.92;;;1.25;;
4248;SDS011;8404;48.752;12.922;2022-09-09T13:56:28;2.40;;;1.13;;
4248;SDS011;8404;48.752;12.922;2022-09-09T13:58:56;1.73;;;1.35;;
4248;SDS011;8404;48.752;12.922;2022-09-09T14:01:24;1.25;;;0.90;;
4248;SDS011;8404;48.752;12.922;2022-09-09T14:03:56;3.88;;;1.30;;
4248;SDS011;8404;48.752;12.922;2022-09-09T14:06:25;2.08;;;1.10;;
4248;SDS011;8404;48.752;12.922;2022-09-09T14:08:53;3.58;;;1.40;;
4248;SDS011;8404;48.752;12.922;2022-09-09T14:11:21;2.08;;;1.20;;
4248;SDS011;8404;48.752;12.922;2022-09-09T14:13:49;3.40;;;1.00;;
4248;SDS011;8404;48.752;12.922;2022-09-09T14:16:17;1.67;;;1.10;;
4248;SDS011;8404;48.752;12.922;2022-09-09T14:18:47;2.83;;;1.50;;
4248;SDS011;8404;48.752;12.922;2022-09-09T14:21:16;2.25;;;1.10;;
4248;SDS011;8404;48.752;12.922;2022-09-09T14:23:44;1.85;;;1.10;;
4248;SDS011;8404;48.752;12.922;2022-09-09T14:26:13;1.77;;;0.85;;
4248;SDS011;8404;48.752;12.922;2022-09-09T14:28:41;2.78;;;1.13;;
4248;SDS011;8404;48.752;12.922;2022-09-09T14:31:25;1.63;;;0.85;;
4248;SDS011;8404;48.752;12.922;2022-09-09T14:33:53;1.70;;;0.70;;
4248;SDS011;8404;48.752;12.922;2022-09-09T14:36:22;2.72;;;0.80;;
4248;SDS011;8404;48.752;12.922;2022-09-09T14:38:50;2.25;;;0.77;;
4248;SDS011;8404;48.752;12.922;2022-09-09T14:41:19;0.70;;;0.40;;
4248;SDS011;8404;48.752;12.922;2022-09-09T14:43:48;1.23;;;0.40;;
4248;SDS011;8404;48.752;12.922;2022-09-09T14:46:18;1.08;;;0.65;;
4248;SDS011;8404;48.752;12.922;2022-09-09T14:48:47;1.45;;;0.60;;
4248;SDS011;8404;48.752;12.922;2022-09-09T14:51:16;1.70;;;0.40;;
4248;SDS011;8404;48.752;12.922;2022-09-09T14:53:50;1.30;;;0.60;;
4248;SDS011;8404;48.752;12.922;2022-09-09T14:56:20;1.48;;;0.50;;
4248;SDS011;8404;48.752;12.922;2022-09-09T14:58:52;1.77;;;0.77;;
4248;SDS011;8404;48.752;12.922;2022-09-09T15:01:21;1.95;;;0.60;;
4248;SDS011;8404;48.752;12.922;2022-09-09T15:03:54;2.08;;;0.50;;
4248;SDS011;8404;48.752;12.922;2022-09-09T15:06:24;1.00;;;0.50;;
4248;SDS011;8404;48.752;12.922;2022-09-09T15:08:55;1.63;;;0.50;;
4248;SDS011;8404;48.752;12.922;2022-09-09T15:11:25;2.53;;;0.80;;
4248;SDS011;8404;48.752;12.922;2022-09-09T15:13:54;0.90;;;0.75;;
4248;SDS011;8404;48.752;12.922;2022-09-09T15:16:23;1.60;;;0.55;;
4248;SDS011;8404;48.752;12.922;2022-09-09T15:18:54;1.23;;;0.60;;
4248;SDS011;8404;48.752;12.922;2022-09-09T15:21:24;2.42;;;0.70;;
4248;SDS011;8404;48.752;12.922;2022-09-09T15:23:56;1.35;;;0.60;;
4248;SDS011;8404;48.752;12.922;2022-09-09T15:26:24;3.75;;;1.05;;
4248;SDS011;8404;48.752;12.922;2022-09-09T15:28:53;1.27;;;0.50;;
4248;SDS011;8404;48.752;12.922;2022-09-09T15:31:22;0.80;;;0.40;;
4248;SDS011;8404;48.752;12.922;2022-09-09T15:33:52;1.25;;;0.52;;
4248;SDS011;8404;48.752;12.922;2022-09-09T15:36:27;1.03;;;0.50;;
4248;SDS011;8404;48.752;12.922;2022-09-09T15:38:58;1.20;;;0.50;;
4248;SDS011;8404;48.752;12.922;2022-09-09T15:41:26;1.05;;;0.60;;
4248;SDS011;8404;48.752;12.922;2022-09-09T15:43:56;3.05;;;0.98;;
4248;SDS011;8404;48.752;12.922;2022-09-09T15:46:26;2.50;;;0.88;;
4248;SDS011;8404;48.752;12.922;2022-09-09T15:48:57;2.05;;;0.73;;
4248;SDS011;8404;48.752;12.922;2022-09-09T15:51:25;2.85;;;0.70;;